createdAt,value
2022-12-14T00:00:20.029Z,3.10
2022-12-14T00:02:48.604Z,3.10
2022-12-14T00:05:19.820Z,3.10
2022-12-14T00:07:49.073Z,3.10
2022-12-14T00:10:18.883Z,3.10
2022-12-14T00:12:47.432Z,3.10
2022-12-14T00:15:16.034Z,3.10
2022-12-14T00:17:44.491Z,3.10
2022-12-14T00:20:13.147Z,3.10
2022-12-14T00:22:41.591Z,3.10
2022-12-14T00:25:10.423Z,3.10
2022-12-14T00:27:45.158Z,3.10
2022-12-14T00:30:14.672Z,3.00
2022-12-14T00:32:43.214Z,3.00
2022-12-14T00:35:13.067Z,3.00
2022-12-14T00:37:41.618Z,3.10
2022-12-14T00:40:11.280Z,3.10
2022-12-14T00:42:39.719Z,3.10
2022-12-14T00:45:10.540Z,3.00
2022-12-14T00:47:40.925Z,3.10
2022-12-14T00:50:10.273Z,3.10
2022-12-14T00:52:38.755Z,3.10
2022-12-14T00:55:08.056Z,3.10
2022-12-14T00:57:36.392Z,3.10
2022-12-14T01:00:06.245Z,3.10
2022-12-14T01:02:36.081Z,3.10
2022-12-14T01:05:04.650Z,3.00
2022-12-14T01:07:33.025Z,3.10
2022-12-14T01:10:01.474Z,3.10
2022-12-14T01:12:29.775Z,3.10
2022-12-14T01:14:58.632Z,3.10
2022-12-14T01:17:27.130Z,3.10
2022-12-14T01:19:56.873Z,3.10
2022-12-14T01:22:25.270Z,3.10
2022-12-14T01:24:53.699Z,3.10
2022-12-14T01:27:22.193Z,3.10
2022-12-14T01:29:50.597Z,3.10
2022-12-14T01:32:18.940Z,3.10
2022-12-14T01:34:51.268Z,3.10
2022-12-14T01:37:21.225Z,3.10
2022-12-14T01:39:49.849Z,3.10
2022-12-14T01:42:18.179Z,3.10
2022-12-14T01:44:59.018Z,3.10
2022-12-14T01:47:34.991Z,3.10
2022-12-14T01:50:09.246Z,3.10
2022-12-14T01:52:42.897Z,3.10
2022-12-14T01:55:14.902Z,3.10
2022-12-14T01:57:48.240Z,3.10
2022-12-14T02:00:18.194Z,3.10
2022-12-14T02:02:51.090Z,3.00
2022-12-14T02:05:22.683Z,3.10
2022-12-14T02:07:55.247Z,3.10
2022-12-14T02:10:27.352Z,3.20
2022-12-14T02:13:01.778Z,3.10
2022-12-14T02:15:31.530Z,3.10
2022-12-14T02:18:00.673Z,3.10
2022-12-14T02:20:35.290Z,3.10
2022-12-14T02:23:42.583Z,3.10
2022-12-14T02:26:40.846Z,3.10
2022-12-14T02:29:34.567Z,3.10
2022-12-14T02:32:17.090Z,3.10
2022-12-14T02:34:57.139Z,3.00
2022-12-14T02:37:34.922Z,3.10
2022-12-14T02:40:21.979Z,3.00
2022-12-14T02:43:03.007Z,3.10
2022-12-14T02:45:39.750Z,3.10
2022-12-14T02:48:15.316Z,3.10
2022-12-14T02:50:50.435Z,3.10
2022-12-14T02:53:26.234Z,3.10
2022-12-14T02:55:58.548Z,3.10
2022-12-14T02:58:31.667Z,3.10
2022-12-14T03:01:01.735Z,3.10
2022-12-14T03:03:30.470Z,3.10
2022-12-14T03:06:01.440Z,3.10
2022-12-14T03:08:34.224Z,3.10
2022-12-14T03:11:05.799Z,3.10
2022-12-14T03:13:37.252Z,3.10
2022-12-14T03:16:12.083Z,3.10
2022-12-14T03:18:46.147Z,3.10
2022-12-14T03:21:20.304Z,3.10
2022-12-14T03:23:52.272Z,3.00
2022-12-14T03:26:27.134Z,3.10
2022-12-14T03:28:58.644Z,3.10
2022-12-14T03:31:33.673Z,3.10
2022-12-14T03:34:06.355Z,3.10
2022-12-14T03:36:48.267Z,3.10
2022-12-14T03:39:22.147Z,3.10
2022-12-14T03:41:59.206Z,3.20
2022-12-14T03:44:41.751Z,3.20
2022-12-14T03:47:32.231Z,3.20
2022-12-14T03:50:04.635Z,3.20
2022-12-14T03:52:38.208Z,3.10
2022-12-14T03:55:21.612Z,3.10
2022-12-14T03:58:04.439Z,3.10
2022-12-14T04:00:41.920Z,3.10
2022-12-14T04:03:17.122Z,3.10
2022-12-14T04:05:51.471Z,3.10
2022-12-14T04:08:28.577Z,3.10
2022-12-14T04:11:16.805Z,3.10
2022-12-14T04:14:08.867Z,3.10
2022-12-14T04:16:59.986Z,3.10
2022-12-14T04:19:36.655Z,3.10
2022-12-14T04:22:09.022Z,3.10
2022-12-14T04:24:58.587Z,3.10
2022-12-14T04:27:36.581Z,3.10
2022-12-14T04:30:06.488Z,3.10
2022-12-14T04:32:37.916Z,3.10
2022-12-14T04:35:13.254Z,3.10
2022-12-14T04:37:45.195Z,3.10
2022-12-14T04:40:21.872Z,3.10
2022-12-14T04:42:56.060Z,3.10
2022-12-14T04:45:29.115Z,3.00
2022-12-14T04:48:04.828Z,3.00
2022-12-14T04:50:38.680Z,3.00
2022-12-14T04:53:11.557Z,3.10
2022-12-14T04:55:47.379Z,3.00
2022-12-14T04:58:21.648Z,3.10
2022-12-14T05:01:12.876Z,3.10
2022-12-14T05:03:52.515Z,3.10
2022-12-14T05:06:27.755Z,3.00
2022-12-14T05:09:14.101Z,3.10
2022-12-14T05:11:53.614Z,3.10
2022-12-14T05:14:30.759Z,3.00
2022-12-14T05:17:03.411Z,3.00
2022-12-14T05:19:35.031Z,3.00
2022-12-14T05:22:08.944Z,3.00
2022-12-14T05:24:37.681Z,3.00
2022-12-14T05:27:06.318Z,3.00
2022-12-14T05:29:34.746Z,3.10
2022-12-14T05:32:03.522Z,3.10
2022-12-14T05:34:32.010Z,3.10
2022-12-14T05:37:00.391Z,3.10
2022-12-14T05:39:30.217Z,3.10
2022-12-14T05:41:58.604Z,3.10
2022-12-14T05:44:26.980Z,3.10
2022-12-14T05:46:55.971Z,3.10
2022-12-14T05:49:25.335Z,3.10
2022-12-14T05:51:53.808Z,3.10
2022-12-14T05:54:22.533Z,3.10
2022-12-14T05:56:52.544Z,3.10
2022-12-14T05:59:20.924Z,3.10
2022-12-14T06:01:51.153Z,3.10
2022-12-14T06:04:20.170Z,3.10
2022-12-14T06:06:48.809Z,3.10
2022-12-14T06:09:17.699Z,3.20
2022-12-14T06:11:47.278Z,3.20
2022-12-14T06:14:17.807Z,3.20
2022-12-14T06:16:47.570Z,3.20
2022-12-14T06:19:16.427Z,3.20
2022-12-14T06:21:45.190Z,3.10
2022-12-14T06:24:14.590Z,3.20
2022-12-14T06:26:43.493Z,3.30
2022-12-14T06:29:17.927Z,3.30
2022-12-14T06:31:49.379Z,3.30
2022-12-14T06:34:22.265Z,3.30
2022-12-14T06:36:53.423Z,3.20
2022-12-14T06:39:21.838Z,3.20
2022-12-14T06:41:51.833Z,3.30
2022-12-14T06:44:21.678Z,3.20
2022-12-14T06:46:50.303Z,3.20
2022-12-14T06:49:18.931Z,3.20
2022-12-14T06:51:47.476Z,3.20
2022-12-14T06:54:17.611Z,3.30
2022-12-14T06:56:47.992Z,3.30
2022-12-14T06:59:17.823Z,3.40
2022-12-14T07:01:49.941Z,3.40
2022-12-14T07:04:21.285Z,3.30
2022-12-14T07:06:49.990Z,3.30
2022-12-14T07:09:18.897Z,3.30
2022-12-14T07:11:47.372Z,3.30
2022-12-14T07:14:18.388Z,3.30
2022-12-14T07:16:49.004Z,3.40
2022-12-14T07:19:18.634Z,3.40
2022-12-14T07:21:47.160Z,3.40
2022-12-14T07:24:15.639Z,3.40
2022-12-14T07:26:44.661Z,3.40
2022-12-14T07:29:15.213Z,3.50
2022-12-14T07:31:43.852Z,3.50
2022-12-14T07:34:19.491Z,3.60
2022-12-14T07:36:50.779Z,3.60
2022-12-14T07:39:19.608Z,3.60
2022-12-14T07:41:50.550Z,3.60
2022-12-14T07:44:22.827Z,3.60
2022-12-14T07:46:51.281Z,3.60
2022-12-14T07:49:21.688Z,3.60
2022-12-14T07:51:50.073Z,3.60
2022-12-14T07:54:18.545Z,3.60
2022-12-14T07:56:46.955Z,3.70
2022-12-14T07:59:16.537Z,3.70
2022-12-14T08:01:45.644Z,3.70
2022-12-14T08:04:15.883Z,3.70
2022-12-14T08:06:50.130Z,3.70
2022-12-14T08:09:20.821Z,3.60
2022-12-14T08:11:49.605Z,3.70
2022-12-14T08:14:19.517Z,3.70
2022-12-14T08:16:49.399Z,3.70
2022-12-14T08:19:18.985Z,3.70
2022-12-14T08:21:48.893Z,3.70
2022-12-14T08:24:17.985Z,3.70
2022-12-14T08:26:48.990Z,3.70
2022-12-14T08:29:18.522Z,3.80
2022-12-14T08:31:47.083Z,3.80
2022-12-14T08:34:20.811Z,3.80
2022-12-14T08:36:51.084Z,3.80
2022-12-14T08:39:19.830Z,3.90
2022-12-14T08:41:48.535Z,3.80
2022-12-14T08:44:18.720Z,3.80
2022-12-14T08:46:47.741Z,3.80
2022-12-14T08:49:16.452Z,3.80
2022-12-14T08:51:44.754Z,3.80
2022-12-14T08:54:14.604Z,3.90
2022-12-14T08:56:43.424Z,3.90
2022-12-14T08:59:29.925Z,3.80
2022-12-14T09:02:00.470Z,3.80
2022-12-14T09:04:29.145Z,3.80
2022-12-14T09:06:57.633Z,3.80
2022-12-14T09:09:27.507Z,3.80
2022-12-14T09:11:55.912Z,3.80
2022-12-14T09:14:24.291Z,3.90
2022-12-14T09:16:52.854Z,3.90
2022-12-14T09:19:21.426Z,4.00
2022-12-14T09:21:49.928Z,4.00
2022-12-14T09:24:18.420Z,4.10
2022-12-14T09:26:49.264Z,4.10
2022-12-14T09:29:20.060Z,4.20
2022-12-14T09:31:48.509Z,4.20
2022-12-14T09:34:16.937Z,4.20
2022-12-14T09:36:45.882Z,4.20
2022-12-14T09:39:15.101Z,4.30
2022-12-14T09:42:04.344Z,4.20
2022-12-14T09:44:45.018Z,4.20
2022-12-14T09:47:18.925Z,4.20
2022-12-14T09:49:50.641Z,4.30
2022-12-14T09:52:22.001Z,4.20
2022-12-14T09:54:52.549Z,4.20
2022-12-14T09:57:43.045Z,4.20
2022-12-14T10:00:15.357Z,4.20
2022-12-14T10:02:56.908Z,4.20
2022-12-14T10:05:47.928Z,4.20
2022-12-14T10:08:22.618Z,4.30
2022-12-14T10:11:02.224Z,4.30
2022-12-14T10:13:42.475Z,4.30
2022-12-14T10:16:21.133Z,4.30
2022-12-14T10:19:11.515Z,4.30
2022-12-14T10:21:46.271Z,4.30
2022-12-14T10:24:20.950Z,4.30
2022-12-14T10:26:53.170Z,4.30
2022-12-14T10:29:32.460Z,4.30
2022-12-14T10:32:08.062Z,4.30
2022-12-14T10:34:37.463Z,4.30
2022-12-14T10:37:24.214Z,4.30
2022-12-14T10:40:10.832Z,4.40
2022-12-14T10:42:49.574Z,4.40
2022-12-14T10:45:40.732Z,4.40
2022-12-14T10:48:29.421Z,4.40
2022-12-14T10:51:04.049Z,4.40
2022-12-14T10:53:40.760Z,4.40
2022-12-14T10:56:17.476Z,4.40
2022-12-14T10:58:46.306Z,4.40
2022-12-14T11:01:16.714Z,4.40
2022-12-14T11:03:49.731Z,4.50
2022-12-14T11:06:20.779Z,4.50
2022-12-14T11:08:50.605Z,4.60
2022-12-14T11:11:23.217Z,4.60
2022-12-14T11:13:54.655Z,4.60
2022-12-14T11:16:36.766Z,4.70
2022-12-14T11:19:07.348Z,4.70
2022-12-14T11:21:38.303Z,4.70
2022-12-14T11:24:08.286Z,4.70
2022-12-14T11:26:39.493Z,4.80
2022-12-14T11:29:19.231Z,4.80
2022-12-14T11:31:52.546Z,4.80
2022-12-14T11:34:26.096Z,4.90
2022-12-14T11:36:54.696Z,4.90
2022-12-14T11:39:25.187Z,5.00
2022-12-14T11:42:02.653Z,5.00
2022-12-14T11:44:34.698Z,5.10
2022-12-14T11:47:08.778Z,5.10
2022-12-14T11:49:44.488Z,5.10
2022-12-14T11:52:17.204Z,5.10
2022-12-14T11:54:49.992Z,5.20
2022-12-14T11:57:31.884Z,5.20
2022-12-14T12:00:03.085Z,5.10
2022-12-14T12:02:38.113Z,5.20
2022-12-14T12:05:10.223Z,5.10
2022-12-14T12:07:41.171Z,5.10
2022-12-14T12:10:20.560Z,5.20
2022-12-14T12:12:54.544Z,5.20
2022-12-14T12:15:27.459Z,5.30
2022-12-14T12:18:02.415Z,5.30
2022-12-14T12:20:36.188Z,5.30
2022-12-14T12:23:12.920Z,5.40
2022-12-14T12:25:42.963Z,5.30
2022-12-14T12:28:18.394Z,5.30
2022-12-14T12:30:51.057Z,5.30
2022-12-14T12:33:32.267Z,5.30
2022-12-14T12:36:05.556Z,5.30
2022-12-14T12:39:02.040Z,5.40
2022-12-14T12:41:35.783Z,5.40
2022-12-14T12:44:17.755Z,5.50
2022-12-14T12:47:23.010Z,5.50
2022-12-14T12:49:45.149Z,5.50
2022-12-14T12:52:21.964Z,5.50
2022-12-14T12:54:57.676Z,5.50
2022-12-14T12:57:29.502Z,5.50
2022-12-14T13:00:00.000Z,5.50
2022-12-14T13:02:33.524Z,5.50
2022-12-14T13:05:37.222Z,5.50
2022-12-14T13:08:02.153Z,5.40
2022-12-14T13:10:34.550Z,5.40
2022-12-14T13:13:08.552Z,5.40
2022-12-14T13:15:41.909Z,5.50
2022-12-14T13:18:41.214Z,5.50
2022-12-14T13:21:23.904Z,5.50
2022-12-14T13:23:52.849Z,5.40
2022-12-14T13:26:59.084Z,5.40
2022-12-14T13:29:44.047Z,5.40
2022-12-14T13:32:37.177Z,5.50
2022-12-14T13:35:21.478Z,5.50
2022-12-14T13:38:03.578Z,5.50
2022-12-14T13:41:22.798Z,5.50
2022-12-14T13:44:18.090Z,5.40
2022-12-14T13:46:46.832Z,5.40
2022-12-14T13:49:22.413Z,5.40
2022-12-14T13:51:52.056Z,5.30
2022-12-14T13:54:27.828Z,5.40
2022-12-14T13:57:05.423Z,5.40
2022-12-14T13:59:38.155Z,5.40
2022-12-14T14:02:28.384Z,5.40
2022-12-14T14:05:47.209Z,5.40
2022-12-14T14:08:42.428Z,5.40
2022-12-14T14:11:44.643Z,5.40
2022-12-14T14:14:37.023Z,5.40
2022-12-14T14:17:13.403Z,5.40
2022-12-14T14:19:42.935Z,5.50
2022-12-14T14:22:23.821Z,5.50
2022-12-14T14:25:01.271Z,5.50
2022-12-14T14:27:37.432Z,5.60
2022-12-14T14:30:25.907Z,5.50
2022-12-14T14:33:03.003Z,5.50
2022-12-14T14:35:43.947Z,5.50
2022-12-14T14:38:25.274Z,5.40
2022-12-14T14:41:16.175Z,5.40
2022-12-14T14:43:51.140Z,5.40
2022-12-14T14:46:23.521Z,5.40
2022-12-14T14:48:54.924Z,5.40
2022-12-14T14:51:27.286Z,5.50
2022-12-14T14:57:57.058Z,5.50
2022-12-14T15:00:25.858Z,5.50
2022-12-14T15:02:56.267Z,5.50
2022-12-14T15:05:41.882Z,5.40
2022-12-14T15:08:19.986Z,5.30
2022-12-14T15:10:50.431Z,5.40
2022-12-14T15:13:24.295Z,5.30
2022-12-14T15:15:56.480Z,5.30
2022-12-14T15:18:28.280Z,5.30
2022-12-14T15:21:01.866Z,5.20
2022-12-14T15:23:35.629Z,5.20
2022-12-14T15:26:16.301Z,5.20
2022-12-14T15:28:49.592Z,5.20
2022-12-14T15:31:19.608Z,5.20
2022-12-14T15:33:49.617Z,5.20
2022-12-14T15:36:20.979Z,5.20
2022-12-14T15:38:53.537Z,5.10
2022-12-14T15:41:24.017Z,5.10
2022-12-14T15:43:59.698Z,5.10
2022-12-14T15:46:33.365Z,5.00
2022-12-14T15:49:05.103Z,5.00
2022-12-14T15:51:42.014Z,4.90
2022-12-14T15:54:19.274Z,5.00
2022-12-14T15:56:50.119Z,5.00
2022-12-14T15:59:21.447Z,5.00
2022-12-14T16:01:56.044Z,4.90
2022-12-14T16:04:30.230Z,4.90
2022-12-14T16:07:08.662Z,5.00
2022-12-14T16:09:42.171Z,5.00
2022-12-14T16:12:18.639Z,5.00
2022-12-14T16:14:50.975Z,5.00
2022-12-14T16:17:24.054Z,5.00
2022-12-14T16:20:00.796Z,5.00
2022-12-14T16:22:30.804Z,5.00
2022-12-14T16:25:16.836Z,5.00
2022-12-14T16:27:50.155Z,5.00
2022-12-14T16:30:25.978Z,4.90
2022-12-14T16:33:06.756Z,5.00
2022-12-14T16:35:39.244Z,4.90
2022-12-14T16:38:13.123Z,4.90
2022-12-14T16:40:43.913Z,4.90
2022-12-14T16:43:28.673Z,4.90
2022-12-14T16:46:12.323Z,4.90
2022-12-14T16:48:43.757Z,4.90
2022-12-14T16:51:58.777Z,4.90
2022-12-14T16:54:28.586Z,4.90
2022-12-14T16:57:01.211Z,4.90
2022-12-14T16:59:37.769Z,4.90
2022-12-14T17:02:10.389Z,4.90
2022-12-14T17:04:43.918Z,4.90
2022-12-14T17:07:16.558Z,4.90
2022-12-14T17:09:44.987Z,5.00
2022-12-14T17:12:16.528Z,4.90
2022-12-14T17:14:49.986Z,4.90
2022-12-14T17:17:23.177Z,4.90
2022-12-14T17:19:51.920Z,4.90
2022-12-14T17:22:26.302Z,5.00
2022-12-14T17:24:55.033Z,5.00
2022-12-14T17:27:26.713Z,5.00
2022-12-14T17:29:57.223Z,4.90
2022-12-14T17:32:29.675Z,4.90
2022-12-14T17:34:58.427Z,4.90
2022-12-14T17:37:34.135Z,4.90
2022-12-14T17:40:05.439Z,4.90
2022-12-14T17:42:33.775Z,4.90
2022-12-14T17:45:02.254Z,5.00
2022-12-14T17:47:30.671Z,5.00
2022-12-14T17:49:59.143Z,5.00
2022-12-14T17:52:31.808Z,4.90
2022-12-14T17:55:00.693Z,4.90
2022-12-14T17:57:29.274Z,4.90
2022-12-14T18:00:11.499Z,4.90
2022-12-14T18:02:40.680Z,4.90
2022-12-14T18:05:18.532Z,4.90
2022-12-14T18:07:49.826Z,5.00
2022-12-14T18:10:19.664Z,4.90
2022-12-14T18:12:48.200Z,4.90
2022-12-14T18:15:23.303Z,4.90
2022-12-14T18:17:51.767Z,4.90
2022-12-14T18:20:20.796Z,4.90
2022-12-14T18:22:51.578Z,4.90
2022-12-14T18:25:33.071Z,4.90
2022-12-14T18:28:02.716Z,4.90
2022-12-14T18:30:38.692Z,4.90
2022-12-14T18:33:10.384Z,4.90
2022-12-14T18:35:38.788Z,4.90
2022-12-14T18:38:09.050Z,4.90
2022-12-14T18:40:37.903Z,4.90
2022-12-14T18:43:06.426Z,4.90
2022-12-14T18:45:35.814Z,4.90
2022-12-14T18:48:04.522Z,4.80
2022-12-14T18:50:33.079Z,4.80
2022-12-14T18:53:01.484Z,4.80
2022-12-14T18:55:33.447Z,4.90
2022-12-14T18:58:03.788Z,4.90
2022-12-14T19:00:38.300Z,4.90
2022-12-14T19:03:06.864Z,4.90
2022-12-14T19:05:35.415Z,4.90
2022-12-14T19:08:03.982Z,4.80
2022-12-14T19:10:34.219Z,4.70
2022-12-14T19:13:03.069Z,4.70
2022-12-14T19:15:34.861Z,4.80
2022-12-14T19:18:03.532Z,4.80
2022-12-14T19:20:32.015Z,4.80
2022-12-14T19:23:01.858Z,4.80
2022-12-14T19:25:30.286Z,4.80
2022-12-14T19:30:49.832Z,4.90
2022-12-14T19:33:20.003Z,4.90
2022-12-14T19:35:49.376Z,4.90
2022-12-14T19:38:18.480Z,4.90
2022-12-14T19:40:58.000Z,4.90
2022-12-14T19:43:29.183Z,4.90
2022-12-14T19:45:57.779Z,4.90
2022-12-14T19:48:26.137Z,4.90
2022-12-14T19:50:54.587Z,4.90
2022-12-14T19:53:23.986Z,4.90
2022-12-14T19:55:53.599Z,4.90
2022-12-14T19:58:24.964Z,4.90
2022-12-14T20:00:54.748Z,4.80
2022-12-14T20:03:23.763Z,4.90
2022-12-14T20:05:53.437Z,4.90
2022-12-14T20:08:22.160Z,4.90
2022-12-14T20:10:52.637Z,4.90
2022-12-14T20:13:21.226Z,4.90
2022-12-14T20:15:50.615Z,4.90
2022-12-14T20:18:21.422Z,4.90
2022-12-14T20:20:50.562Z,4.90
2022-12-14T20:23:19.117Z,4.90
2022-12-14T20:25:47.702Z,4.90
2022-12-14T20:28:16.312Z,4.90
2022-12-14T20:30:45.781Z,4.90
2022-12-14T20:33:14.887Z,4.90
2022-12-14T20:35:44.595Z,4.90
2022-12-14T20:38:13.147Z,4.90
2022-12-14T20:40:41.647Z,5.00
2022-12-14T20:43:10.110Z,4.90
2022-12-14T20:45:39.845Z,4.90
2022-12-14T20:48:09.382Z,4.90
2022-12-14T20:50:39.117Z,4.90
2022-12-14T20:53:09.165Z,4.90
2022-12-14T20:55:37.661Z,4.90
2022-12-14T20:58:06.000Z,4.90
2022-12-14T21:00:34.522Z,4.90
2022-12-14T21:03:05.226Z,4.90
2022-12-14T21:05:33.738Z,4.90
2022-12-14T21:08:02.097Z,4.90
2022-12-14T21:10:31.983Z,4.90
2022-12-14T21:13:07.382Z,4.90
2022-12-14T21:15:37.546Z,4.90
2022-12-14T21:18:06.859Z,4.90
2022-12-14T21:20:35.514Z,4.90
2022-12-14T21:23:03.905Z,4.90
2022-12-14T21:25:33.774Z,4.90
2022-12-14T21:28:02.222Z,4.90
2022-12-14T21:30:31.630Z,4.90
2022-12-14T21:33:00.208Z,4.90
2022-12-14T21:35:28.752Z,4.90
2022-12-14T21:37:57.204Z,4.90
2022-12-14T21:40:39.546Z,4.90
2022-12-14T21:43:10.051Z,4.90
2022-12-14T21:45:39.599Z,4.90
2022-12-14T21:48:08.334Z,4.90
2022-12-14T21:50:36.725Z,4.90
2022-12-14T21:53:05.207Z,4.90
2022-12-14T21:55:33.513Z,4.90
2022-12-14T21:58:16.197Z,4.90
2022-12-14T22:00:46.762Z,4.90
2022-12-14T22:03:15.325Z,4.90
2022-12-14T22:05:43.834Z,4.90
2022-12-14T22:08:12.312Z,4.90
2022-12-14T22:10:40.766Z,4.90
2022-12-14T22:13:09.310Z,4.90
2022-12-14T22:15:37.660Z,4.90
2022-12-14T22:18:08.116Z,4.90
2022-12-14T22:20:36.835Z,4.90
2022-12-14T22:23:05.682Z,4.90
2022-12-14T22:25:34.246Z,4.90
2022-12-14T22:28:02.767Z,4.90
2022-12-14T22:30:32.129Z,4.90
2022-12-14T22:33:00.509Z,4.90
2022-12-14T22:35:30.323Z,4.90
2022-12-14T22:37:59.809Z,5.00
2022-12-14T22:40:28.321Z,5.00
2022-12-14T22:42:56.848Z,5.00
2022-12-14T22:45:25.260Z,5.00
2022-12-14T22:47:53.840Z,5.00
2022-12-14T22:50:22.368Z,5.00
2022-12-14T22:52:52.220Z,5.00
2022-12-14T22:55:20.743Z,5.00
2022-12-14T22:57:49.470Z,4.90
2022-12-14T23:00:18.480Z,4.90
2022-12-14T23:02:48.784Z,4.90
2022-12-14T23:05:19.034Z,4.90
2022-12-14T23:07:47.556Z,5.00
2022-12-14T23:10:35.135Z,5.00
2022-12-14T23:13:21.262Z,5.00
2022-12-14T23:16:07.195Z,5.00
2022-12-14T23:18:53.331Z,5.00
2022-12-14T23:21:39.250Z,5.00
2022-12-14T23:24:26.038Z,5.00
2022-12-14T23:27:13.400Z,5.00
2022-12-14T23:29:59.295Z,5.00
2022-12-14T23:32:45.087Z,5.00
2022-12-14T23:35:30.767Z,5.00
2022-12-14T23:38:21.468Z,5.00
2022-12-14T23:41:07.167Z,5.10
2022-12-14T23:43:54.179Z,5.10
2022-12-14T23:46:39.863Z,5.00
2022-12-14T23:49:25.789Z,5.00
2022-12-14T23:52:11.683Z,5.00
2022-12-14T23:54:57.476Z,5.00
2022-12-14T23:57:43.040Z,5.00
